createdAt,value
2018-11-11T00:02:26.940Z,82.30
2018-11-11T00:04:59.190Z,82.20
2018-11-11T00:07:31.370Z,82.40
2018-11-11T00:10:03.483Z,82.90
2018-11-11T00:12:35.190Z,82.80
2018-11-11T00:15:07.439Z,82.90
2018-11-11T00:17:40.280Z,83.20
2018-11-11T00:20:13.040Z,83.30
2018-11-11T00:22:44.599Z,83.60
2018-11-11T00:25:16.270Z,82.50
2018-11-11T00:27:48.205Z,82.60
2018-11-11T00:30:20.490Z,82.60
2018-11-11T00:32:52.150Z,82.40
2018-11-11T00:35:24.954Z,82.20
2018-11-11T00:37:56.911Z,81.80
2018-11-11T00:40:30.601Z,81.60
2018-11-11T00:43:02.020Z,81.40
2018-11-11T00:45:33.648Z,81.60
2018-11-11T00:48:05.499Z,82.50
2018-11-11T00:50:39.050Z,82.20
2018-11-11T00:53:19.918Z,82.60
2018-11-11T00:55:52.466Z,82.30
2018-11-11T00:58:23.984Z,81.50
2018-11-11T01:01:04.444Z,81.90
2018-11-11T01:03:40.456Z,80.80
2018-11-11T01:06:12.196Z,81.90
2018-11-11T01:08:43.677Z,81.20
2018-11-11T01:11:15.527Z,81.20
2018-11-11T01:13:47.546Z,80.80
2018-11-11T01:16:18.977Z,80.80
2018-11-11T01:18:50.759Z,81.30
2018-11-11T01:21:22.616Z,81.40
2018-11-11T01:23:54.288Z,81.50
2018-11-11T01:26:33.760Z,80.90
2018-11-11T01:29:06.030Z,80.30
2018-11-11T01:31:38.990Z,80.60
2018-11-11T01:34:12.232Z,80.80
2018-11-11T01:36:43.899Z,81.00
2018-11-11T01:39:15.660Z,80.90
2018-11-11T01:41:47.380Z,81.40
2018-11-11T01:44:19.616Z,81.20
2018-11-11T01:46:52.659Z,81.00
2018-11-11T01:49:24.539Z,80.50
2018-11-11T01:51:56.181Z,80.50
2018-11-11T01:54:27.621Z,80.70
2018-11-11T01:56:59.140Z,81.00
2018-11-11T01:59:31.111Z,81.50
2018-11-11T02:02:02.994Z,81.30
2018-11-11T02:04:34.569Z,81.40
2018-11-11T02:07:14.186Z,80.80
2018-11-11T02:09:53.700Z,81.00
2018-11-11T02:12:29.857Z,81.40
2018-11-11T02:15:01.561Z,81.50
2018-11-11T02:17:39.995Z,81.50
2018-11-11T02:20:20.979Z,81.30
2018-11-11T02:22:52.804Z,80.70
2018-11-11T02:25:24.336Z,80.40
2018-11-11T02:27:55.974Z,80.40
2018-11-11T02:30:35.754Z,80.60
2018-11-11T02:33:15.402Z,80.90
2018-11-11T02:35:48.118Z,80.70
2018-11-11T02:38:21.044Z,80.70
2018-11-11T02:40:53.402Z,80.90
2018-11-11T02:43:25.492Z,81.30
2018-11-11T02:45:57.314Z,81.40
2018-11-11T02:48:28.932Z,80.80
2018-11-11T02:51:08.445Z,81.70
2018-11-11T02:53:47.600Z,81.70
2018-11-11T02:56:19.350Z,81.40
2018-11-11T02:58:52.359Z,82.00
2018-11-11T03:01:40.712Z,81.40
2018-11-11T03:04:12.123Z,81.40
2018-11-11T03:06:48.297Z,81.30
2018-11-11T03:09:20.057Z,81.30
2018-11-11T03:11:53.317Z,81.90
2018-11-11T03:14:25.028Z,82.10
2018-11-11T03:16:56.817Z,82.20
2018-11-11T03:19:29.237Z,82.20
2018-11-11T03:22:00.858Z,81.90
2018-11-11T03:24:33.547Z,81.90
2018-11-11T03:27:05.179Z,81.90
2018-11-11T03:29:37.169Z,82.00
2018-11-11T03:32:09.247Z,82.40
2018-11-11T03:34:41.687Z,82.30
2018-11-11T03:37:13.377Z,82.20
2018-11-11T03:39:45.957Z,83.00
2018-11-11T03:42:17.488Z,83.00
2018-11-11T03:44:49.168Z,83.20
2018-11-11T03:47:28.944Z,83.50
2018-11-11T03:50:09.123Z,83.20
2018-11-11T03:52:47.695Z,83.50
2018-11-11T03:55:19.882Z,84.40
2018-11-11T03:57:51.502Z,83.90
2018-11-11T04:00:23.333Z,83.80
2018-11-11T04:03:03.433Z,83.80
2018-11-11T04:05:36.501Z,83.70
2018-11-11T04:08:09.253Z,83.60
2018-11-11T04:10:41.166Z,84.20
2018-11-11T04:13:12.962Z,84.20
2018-11-11T04:15:52.723Z,84.30
2018-11-11T04:18:24.204Z,84.20
2018-11-11T04:20:56.063Z,84.30
2018-11-11T04:23:35.400Z,84.10
2018-11-11T04:26:07.979Z,84.30
2018-11-11T04:28:39.738Z,83.90
2018-11-11T04:31:11.409Z,83.90
2018-11-11T04:33:44.788Z,83.80
2018-11-11T04:36:16.890Z,83.40
2018-11-11T04:38:54.575Z,83.10
2018-11-11T04:41:26.668Z,83.00
2018-11-11T04:43:58.206Z,83.00
2018-11-11T04:46:30.195Z,83.60
2018-11-11T04:49:02.128Z,83.20
2018-11-11T04:51:33.557Z,83.40
2018-11-11T04:54:13.120Z,83.60
2018-11-11T04:56:44.590Z,83.50
2018-11-11T04:59:17.100Z,83.40
2018-11-11T05:01:48.968Z,83.20
2018-11-11T05:04:20.871Z,83.30
2018-11-11T05:06:52.880Z,83.10
2018-11-11T05:09:24.920Z,83.00
2018-11-11T05:11:56.639Z,82.60
2018-11-11T05:14:29.030Z,82.80
2018-11-11T05:17:00.461Z,83.00
2018-11-11T05:19:32.182Z,83.30
2018-11-11T05:22:03.779Z,83.20
2018-11-11T05:24:35.820Z,83.20
2018-11-11T05:27:07.240Z,83.00
2018-11-11T05:29:39.259Z,83.00
2018-11-11T05:32:18.351Z,82.80
2018-11-11T05:34:49.910Z,82.80
2018-11-11T05:37:21.621Z,82.70
2018-11-11T05:39:54.370Z,82.60
2018-11-11T05:42:26.363Z,82.60
2018-11-11T05:44:57.871Z,82.80
2018-11-11T05:47:38.412Z,83.30
2018-11-11T05:50:12.269Z,83.30
2018-11-11T05:52:45.072Z,83.30
2018-11-11T05:55:15.872Z,83.20
2018-11-11T05:57:48.283Z,83.00
2018-11-11T06:00:20.854Z,83.30
2018-11-11T06:03:00.455Z,82.80
2018-11-11T06:05:40.342Z,83.00
2018-11-11T06:08:12.612Z,83.30
2018-11-11T06:10:49.125Z,83.60
2018-11-11T06:13:21.847Z,83.60
2018-11-11T06:15:53.377Z,83.60
2018-11-11T06:18:29.474Z,83.40
2018-11-11T06:21:08.946Z,83.30
2018-11-11T06:23:40.646Z,83.30
2018-11-11T06:26:17.597Z,82.90
2018-11-11T06:28:57.261Z,82.80
2018-11-11T06:31:28.739Z,82.70
2018-11-11T06:34:00.332Z,82.90
2018-11-11T06:36:32.699Z,83.10
2018-11-11T06:39:05.609Z,83.30
2018-11-11T06:41:43.244Z,82.80
2018-11-11T06:44:15.064Z,82.30
2018-11-11T06:46:47.293Z,82.60
2018-11-11T06:49:25.044Z,82.30
2018-11-11T06:52:01.196Z,81.90
2018-11-11T06:54:32.784Z,82.00
2018-11-11T06:57:05.669Z,81.60
2018-11-11T06:59:42.049Z,81.20
2018-11-11T07:02:13.905Z,81.40
2018-11-11T07:04:53.617Z,80.80
2018-11-11T07:07:33.122Z,80.90
2018-11-11T07:10:05.435Z,80.90
2018-11-11T07:12:37.586Z,81.30
2018-11-11T07:15:09.416Z,81.40
2018-11-11T07:17:41.336Z,80.90
2018-11-11T07:20:13.528Z,80.60
2018-11-11T07:22:45.536Z,80.40
2018-11-11T07:25:17.465Z,80.40
2018-11-11T07:27:49.864Z,80.20
2018-11-11T07:30:22.951Z,79.90
2018-11-11T07:32:56.205Z,80.00
2018-11-11T07:35:28.115Z,79.90
2018-11-11T07:38:03.066Z,79.80
2018-11-11T07:40:34.866Z,80.00
2018-11-11T07:43:07.796Z,80.10
2018-11-11T07:45:39.375Z,80.30
2018-11-11T07:48:11.146Z,80.50
2018-11-11T07:50:43.716Z,80.20
2018-11-11T07:53:15.297Z,80.30
2018-11-11T07:55:46.977Z,80.30
2018-11-11T07:58:18.712Z,79.70
2018-11-11T08:00:54.564Z,79.10
2018-11-11T08:03:26.944Z,79.50
2018-11-11T08:06:03.444Z,78.70
2018-11-11T08:08:35.943Z,78.30
2018-11-11T08:11:18.418Z,78.20
2018-11-11T08:13:50.304Z,78.00
2018-11-11T08:16:22.863Z,77.30
2018-11-11T08:18:55.393Z,76.70
2018-11-11T08:21:29.172Z,75.90
2018-11-11T08:24:01.923Z,73.90
2018-11-11T08:26:35.184Z,72.90
2018-11-11T08:29:08.573Z,72.80
2018-11-11T08:31:40.812Z,72.40
2018-11-11T08:34:13.112Z,71.90
2018-11-11T08:36:45.163Z,71.40
2018-11-11T08:39:17.942Z,71.50
2018-11-11T08:41:49.692Z,71.20
2018-11-11T08:44:21.444Z,70.80
2018-11-11T08:46:53.523Z,70.40
2018-11-11T08:49:26.422Z,69.30
2018-11-11T08:51:57.954Z,69.40
2018-11-11T08:54:31.283Z,69.40
2018-11-11T08:57:04.132Z,69.90
2018-11-11T08:59:37.024Z,70.80
2018-11-11T09:02:12.398Z,71.20
2018-11-11T09:04:44.196Z,71.30
2018-11-11T09:07:15.866Z,71.70
2018-11-11T09:09:48.206Z,71.90
2018-11-11T09:12:20.956Z,72.30
2018-11-11T09:14:53.306Z,72.40
2018-11-11T09:17:25.190Z,72.90
2018-11-11T09:19:58.130Z,73.70
2018-11-11T09:22:30.657Z,74.00
2018-11-11T09:25:03.987Z,73.70
2018-11-11T09:27:37.506Z,72.90
2018-11-11T09:30:12.596Z,71.90
2018-11-11T09:32:45.066Z,71.50
2018-11-11T09:35:16.747Z,71.30
2018-11-11T09:37:48.526Z,70.50
2018-11-11T09:40:20.186Z,70.00
2018-11-11T09:42:57.866Z,69.70
2018-11-11T09:45:29.460Z,69.90
2018-11-11T09:48:09.473Z,69.40
2018-11-11T09:50:41.701Z,69.30
2018-11-11T09:53:14.313Z,69.50
2018-11-11T09:55:45.770Z,69.60
2018-11-11T09:58:17.232Z,69.80
2018-11-11T10:00:49.294Z,69.50
2018-11-11T10:03:25.550Z,69.10
2018-11-11T10:06:01.942Z,68.80
2018-11-11T10:08:41.364Z,69.00
2018-11-11T10:12:27.216Z,69.50
2018-11-11T10:15:04.294Z,69.40
2018-11-11T10:18:14.615Z,69.10
2018-11-11T10:20:55.252Z,69.10
2018-11-11T10:23:33.190Z,68.60
2018-11-11T10:27:11.896Z,68.60
2018-11-11T10:29:51.392Z,68.50
2018-11-11T10:32:50.873Z,68.30
2018-11-11T10:35:32.203Z,68.30
2018-11-11T10:38:13.874Z,68.20
2018-11-11T10:40:57.682Z,68.20
2018-11-11T10:43:38.453Z,68.40
2018-11-11T10:46:23.017Z,68.40
2018-11-11T10:49:04.670Z,68.60
2018-11-11T10:51:37.647Z,68.70
2018-11-11T10:54:10.623Z,69.10
2018-11-11T10:56:42.855Z,69.20
2018-11-11T10:59:21.402Z,68.70
2018-11-11T11:01:57.712Z,69.10
2018-11-11T11:04:34.708Z,67.90
2018-11-11T11:07:08.280Z,67.90
2018-11-11T11:09:42.137Z,68.00
2018-11-11T11:12:13.917Z,68.00
2018-11-11T11:14:46.274Z,67.70
2018-11-11T11:17:19.486Z,68.50
2018-11-11T11:19:51.730Z,69.40
2018-11-11T11:22:23.536Z,68.90
2018-11-11T11:24:55.217Z,68.00
2018-11-11T11:27:28.547Z,67.80
2018-11-11T11:30:00.581Z,68.00
2018-11-11T11:32:32.288Z,67.90
2018-11-11T11:35:05.039Z,68.20
2018-11-11T11:37:38.358Z,67.30
2018-11-11T11:40:10.948Z,67.60
2018-11-11T11:42:42.972Z,67.50
2018-11-11T11:45:15.727Z,66.80
2018-11-11T11:47:47.487Z,66.80
2018-11-11T11:50:20.510Z,67.30
2018-11-11T11:52:52.265Z,68.20
2018-11-11T11:55:23.657Z,68.00
2018-11-11T11:58:05.491Z,67.80
2018-11-11T12:00:37.509Z,67.70
2018-11-11T12:03:10.527Z,67.30
2018-11-11T12:05:42.247Z,66.90
2018-11-11T12:08:13.807Z,66.70
2018-11-11T12:10:45.799Z,66.90
2018-11-11T12:13:18.439Z,67.00
2018-11-11T12:15:50.078Z,67.00
2018-11-11T12:18:22.906Z,67.40
2018-11-11T12:20:54.687Z,68.00
2018-11-11T12:23:26.365Z,67.80
2018-11-11T12:25:57.898Z,68.00
2018-11-11T12:28:29.457Z,68.10
2018-11-11T12:31:01.830Z,68.20
2018-11-11T12:33:33.601Z,68.10
2018-11-11T12:36:06.007Z,68.10
2018-11-11T12:38:37.667Z,67.50
2018-11-11T12:41:10.247Z,67.70
2018-11-11T12:43:41.766Z,67.60
2018-11-11T12:46:13.616Z,67.60
2018-11-11T12:48:45.371Z,67.20
2018-11-11T12:51:18.008Z,67.50
2018-11-11T12:53:49.707Z,67.50
2018-11-11T12:56:21.217Z,66.60
2018-11-11T12:58:53.638Z,66.60
2018-11-11T13:01:25.487Z,66.20
2018-11-11T13:03:57.767Z,66.00
2018-11-11T13:06:30.578Z,66.70
2018-11-11T13:09:02.548Z,67.10
2018-11-11T13:11:35.325Z,66.80
2018-11-11T13:14:10.059Z,67.40
2018-11-11T13:16:41.599Z,67.60
2018-11-11T13:19:13.552Z,68.10
2018-11-11T13:21:46.371Z,68.40
2018-11-11T13:24:18.109Z,68.30
2018-11-11T13:26:49.579Z,68.80
2018-11-11T13:29:21.359Z,68.90
2018-11-11T13:31:53.094Z,68.60
2018-11-11T13:34:24.659Z,69.00
2018-11-11T13:36:56.280Z,69.50
2018-11-11T13:39:28.408Z,69.60
2018-11-11T13:41:59.820Z,70.00
2018-11-11T13:44:31.449Z,70.20
2018-11-11T13:47:02.820Z,70.00
2018-11-11T13:49:35.258Z,70.10
2018-11-11T13:52:06.688Z,70.30
2018-11-11T13:54:39.029Z,70.30
2018-11-11T13:57:10.458Z,70.30
2018-11-11T13:59:42.240Z,70.30
2018-11-11T14:02:15.109Z,70.10
2018-11-11T14:04:46.729Z,70.00
2018-11-11T14:07:18.479Z,69.90
2018-11-11T14:09:52.040Z,70.00
2018-11-11T14:12:24.089Z,70.30
2018-11-11T14:14:56.239Z,70.10
2018-11-11T14:17:30.843Z,70.10
2018-11-11T14:20:04.302Z,70.10
2018-11-11T14:22:35.841Z,70.10
2018-11-11T14:25:11.001Z,70.20
2018-11-11T14:27:45.708Z,70.30
2018-11-11T14:30:24.666Z,70.50
2018-11-11T14:32:57.266Z,70.40
2018-11-11T14:35:28.746Z,70.60
2018-11-11T14:38:00.656Z,71.20
2018-11-11T14:40:32.957Z,70.80
2018-11-11T14:43:04.756Z,70.80
2018-11-11T14:45:36.917Z,71.00
2018-11-11T14:48:08.567Z,71.20
2018-11-11T14:50:41.176Z,71.20
2018-11-11T14:53:14.206Z,71.40
2018-11-11T14:55:46.096Z,71.70
2018-11-11T14:58:17.926Z,72.40
2018-11-11T15:00:50.205Z,72.10
2018-11-11T15:03:26.826Z,72.50
2018-11-11T15:06:02.684Z,72.60
2018-11-11T15:08:34.293Z,72.80
2018-11-11T15:11:06.624Z,73.10
2018-11-11T15:13:39.293Z,73.20
2018-11-11T15:16:11.124Z,73.30
2018-11-11T15:18:42.744Z,73.30
2018-11-11T15:21:14.623Z,73.40
2018-11-11T15:23:46.966Z,73.60
2018-11-11T15:26:19.364Z,74.00
2018-11-11T15:28:51.364Z,74.40
2018-11-11T15:31:23.223Z,74.50
2018-11-11T15:33:54.954Z,75.00
2018-11-11T15:36:34.543Z,75.00
2018-11-11T15:39:07.974Z,75.20
2018-11-11T15:41:41.184Z,75.40
2018-11-11T15:44:13.027Z,75.70
2018-11-11T15:46:44.794Z,75.80
2018-11-11T15:49:17.705Z,75.90
2018-11-11T15:51:49.484Z,76.10
2018-11-11T15:54:21.029Z,76.30
2018-11-11T15:56:54.304Z,76.30
2018-11-11T15:59:26.576Z,76.70
2018-11-11T16:01:58.304Z,76.80
2018-11-11T16:04:29.893Z,77.10
2018-11-11T16:07:01.634Z,77.30
2018-11-11T16:09:33.994Z,77.20
2018-11-11T16:12:06.319Z,77.20
2018-11-11T16:14:38.045Z,77.20
2018-11-11T16:17:09.636Z,77.30
2018-11-11T16:19:42.028Z,77.20
2018-11-11T16:22:14.065Z,77.40
2018-11-11T16:24:47.055Z,77.60
2018-11-11T16:27:19.544Z,77.80
2018-11-11T16:29:52.348Z,78.10
2018-11-11T16:32:24.407Z,78.00
2018-11-11T16:34:56.007Z,78.30
2018-11-11T16:37:28.359Z,77.80
2018-11-11T16:40:00.937Z,77.80
2018-11-11T16:42:33.817Z,78.10
2018-11-11T16:45:05.415Z,78.30
2018-11-11T16:47:42.049Z,78.50
2018-11-11T16:50:21.590Z,78.60
2018-11-11T16:52:54.934Z,78.60
2018-11-11T16:55:27.802Z,78.80
2018-11-11T16:58:00.188Z,79.00
2018-11-11T17:00:34.318Z,79.50
2018-11-11T17:03:07.337Z,78.70
2018-11-11T17:05:39.668Z,78.60
2018-11-11T17:08:11.378Z,78.50
2018-11-11T17:10:45.779Z,78.60
2018-11-11T17:13:20.099Z,78.70
2018-11-11T17:15:51.767Z,78.80
2018-11-11T17:18:24.608Z,78.60
2018-11-11T17:20:56.943Z,78.50
2018-11-11T17:23:28.869Z,78.50
2018-11-11T17:26:02.278Z,78.50
2018-11-11T17:28:33.994Z,78.60
2018-11-11T17:31:07.399Z,78.50
2018-11-11T17:33:39.047Z,78.60
2018-11-11T17:36:11.125Z,78.60
2018-11-11T17:38:43.048Z,78.70
2018-11-11T17:41:15.959Z,78.80
2018-11-11T17:43:48.088Z,78.80
2018-11-11T17:46:27.640Z,79.00
2018-11-11T17:49:00.298Z,78.90
2018-11-11T17:51:32.439Z,78.70
2018-11-11T17:54:04.240Z,78.60
2018-11-11T17:56:36.441Z,79.00
2018-11-11T17:59:09.369Z,79.00
2018-11-11T18:01:42.109Z,78.90
2018-11-11T18:04:14.352Z,79.00
2018-11-11T18:06:46.160Z,79.00
2018-11-11T18:09:23.634Z,78.80
2018-11-11T18:11:55.363Z,78.90
2018-11-11T18:14:27.635Z,78.90
2018-11-11T18:17:00.585Z,79.00
2018-11-11T18:19:32.615Z,78.90
2018-11-11T18:22:04.568Z,79.00
2018-11-11T18:24:38.924Z,78.80
2018-11-11T18:27:10.784Z,78.60
2018-11-11T18:29:43.330Z,78.50
2018-11-11T18:32:15.015Z,78.10
2018-11-11T18:34:47.093Z,78.10
2018-11-11T18:37:18.985Z,78.00
2018-11-11T18:39:51.174Z,78.10
2018-11-11T18:42:31.257Z,78.00
2018-11-11T18:45:04.374Z,78.00
2018-11-11T18:47:44.564Z,78.20
2018-11-11T18:50:27.877Z,78.30
2018-11-11T18:53:01.283Z,78.00
2018-11-11T18:55:33.444Z,78.20
2018-11-11T18:58:05.593Z,78.20
2018-11-11T19:00:39.574Z,77.80
2018-11-11T19:03:13.084Z,78.00
2018-11-11T19:05:47.115Z,77.80
2018-11-11T19:08:19.364Z,77.80
2018-11-11T19:10:54.332Z,77.70
2018-11-11T19:13:26.972Z,77.50
2018-11-11T19:15:59.612Z,77.80
2018-11-11T19:18:32.940Z,78.40
2018-11-11T19:21:05.177Z,78.50
2018-11-11T19:23:37.199Z,78.10
2018-11-11T19:26:09.503Z,78.40
2018-11-11T19:28:41.692Z,78.40
2018-11-11T19:31:15.076Z,78.20
2018-11-11T19:33:47.922Z,78.30
2018-11-11T19:36:20.324Z,77.90
2018-11-11T19:38:52.753Z,78.10
2018-11-11T19:41:25.276Z,78.40
2018-11-11T19:43:57.474Z,78.90
2018-11-11T19:46:33.114Z,79.10
2018-11-11T19:49:05.399Z,78.90
2018-11-11T19:51:37.888Z,78.60
2018-11-11T19:54:11.180Z,78.70
2018-11-11T19:56:43.331Z,78.70
2018-11-11T19:59:23.692Z,78.60
2018-11-11T20:01:55.712Z,78.50
2018-11-11T20:04:27.882Z,78.90
2018-11-11T20:06:59.844Z,78.20
2018-11-11T20:09:33.254Z,78.70
2018-11-11T20:12:05.203Z,78.30
2018-11-11T20:14:37.192Z,78.00
2018-11-11T20:17:11.212Z,77.50
2018-11-11T20:19:43.872Z,77.30
2018-11-11T20:22:16.372Z,77.70
2018-11-11T20:24:48.852Z,78.00
2018-11-11T20:27:20.746Z,78.30
2018-11-11T20:29:53.363Z,77.90
2018-11-11T20:32:25.334Z,78.00
2018-11-11T20:34:57.746Z,78.00
2018-11-11T20:37:30.542Z,78.30
2018-11-11T20:40:04.124Z,78.30
2018-11-11T20:42:36.352Z,78.20
2018-11-11T20:45:09.253Z,78.40
2018-11-11T20:47:41.825Z,78.40
2018-11-11T20:50:22.673Z,78.40
2018-11-11T20:52:57.591Z,78.50
2018-11-11T20:55:30.608Z,78.20
2018-11-11T20:58:07.059Z,78.10
2018-11-11T21:00:42.051Z,78.00
2018-11-11T21:03:14.160Z,78.10
2018-11-11T21:05:45.809Z,78.20
2018-11-11T21:08:17.539Z,77.90
2018-11-11T21:10:49.611Z,78.00
2018-11-11T21:13:21.401Z,78.50
2018-11-11T21:15:52.871Z,78.20
2018-11-11T21:18:24.481Z,78.40
2018-11-11T21:20:56.481Z,78.10
2018-11-11T21:23:28.541Z,77.70
2018-11-11T21:26:00.910Z,77.70
2018-11-11T21:28:32.550Z,77.80
2018-11-11T21:31:04.509Z,77.30
2018-11-11T21:33:36.410Z,77.30
2018-11-11T21:36:08.851Z,77.80
2018-11-11T21:38:40.523Z,77.70
2018-11-11T21:41:12.260Z,77.70
2018-11-11T21:43:45.249Z,77.70
2018-11-11T21:46:16.740Z,77.40
2018-11-11T21:48:48.260Z,77.70
2018-11-11T21:51:20.352Z,78.10
2018-11-11T21:53:51.979Z,77.80
2018-11-11T21:56:23.860Z,77.50
2018-11-11T21:58:57.100Z,77.40
2018-11-11T22:01:28.929Z,77.70
2018-11-11T22:04:00.743Z,77.50
2018-11-11T22:06:32.292Z,77.40
2018-11-11T22:09:04.895Z,77.10
2018-11-11T22:11:36.621Z,77.20
2018-11-11T22:14:08.771Z,77.40
2018-11-11T22:16:41.079Z,77.30
2018-11-11T22:19:12.765Z,77.60
2018-11-11T22:21:44.550Z,77.00
2018-11-11T22:24:16.370Z,76.90
2018-11-11T22:26:47.839Z,76.70
2018-11-11T22:29:19.860Z,76.90
2018-11-11T22:31:51.553Z,76.70
2018-11-11T22:34:23.180Z,76.80
2018-11-11T22:36:55.090Z,76.50
2018-11-11T22:39:27.400Z,76.60
2018-11-11T22:41:59.781Z,76.70
2018-11-11T22:44:31.411Z,76.90
2018-11-11T22:47:05.461Z,76.90
2018-11-11T22:49:37.192Z,76.90
2018-11-11T22:52:09.011Z,76.60
2018-11-11T22:54:40.840Z,76.80
2018-11-11T22:57:12.949Z,76.90
2018-11-11T22:59:44.810Z,76.70
2018-11-11T23:02:16.484Z,77.30
2018-11-11T23:04:48.529Z,77.40
2018-11-11T23:07:23.625Z,77.60
2018-11-11T23:09:55.625Z,77.90
2018-11-11T23:12:27.205Z,78.30
2018-11-11T23:14:59.145Z,78.10
2018-11-11T23:17:30.676Z,78.00
2018-11-11T23:20:02.777Z,77.80
2018-11-11T23:22:35.255Z,77.80
2018-11-11T23:25:07.405Z,77.90
2018-11-11T23:27:39.375Z,77.80
2018-11-11T23:30:20.506Z,77.70
2018-11-11T23:32:52.816Z,77.40
2018-11-11T23:35:25.604Z,77.20
2018-11-11T23:37:57.855Z,77.30
2018-11-11T23:40:29.845Z,77.50
2018-11-11T23:43:01.215Z,77.70
2018-11-11T23:45:32.956Z,77.60
2018-11-11T23:48:05.044Z,77.80
2018-11-11T23:50:37.086Z,78.50
2018-11-11T23:53:16.424Z,78.50
2018-11-11T23:55:48.724Z,78.20
2018-11-11T23:58:20.584Z,77.80
